Trimble, Colorado
Current Conditions -  °F | °C
As of 1:53 PM on Tuesday 21 Oct 2014 (Local Time) from KDRO Reporting Station
Broken Clouds Broken Clouds  
Wind Chill: 59°   Ceiling: 9500
Heat Index: 59°   Visibility: 10mi
Dew Point: 43°   Wind: 0mph
Humidity: 55%   Direction: NA
Pressure: 30.14"   Gusts: NA
Location:  37.39°N, 107.85°W
Report Text: KDRO 211953Z AUTO 00000KT 10SM BKN095 15/06 A3014 RMK AO2 SLP154 T01500061 PWINO
Loading
Personal Weather Stations






























Interactive Weather Map
Tropical Storm Tracking
New forecast layout! Learn more

10-Day Weather Forecast

Advertisements
Track Severe Weather on mobile